Time;durP1;ratioP1;P1;durP2;ratioP2;P2;SDS_P1;SDS_P2;PMS_P1;PMS_P2;Temp;Humidity;BMP_temperature;BMP_pressure;BME280_temperature;BME280_humidity;BME280_pressure;Samples;Min_cycle;Max_cycle;Signal;HPM_P1;HPM_P2
2023/06/24 00:02:23;;;;;;;4.03;1.65;;;15.80;99.90;;;;;;5089015;28;20412;-63
2023/06/24 00:04:51;;;;;;;4.70;1.83;;;15.80;99.90;;;;;;5089523;28;20036;-63
2023/06/24 00:07:17;;;;;;;7.75;2.55;;;15.80;99.90;;;;;;5088649;28;20123;-63
2023/06/24 00:09:43;;;;;;;4.85;2.00;;;15.70;99.90;;;;;;5088986;28;20520;-63
2023/06/24 00:12:09;;;;;;;3.83;1.38;;;15.70;99.90;;;;;;5087995;28;20495;-63
2023/06/24 00:14:36;;;;;;;3.95;1.90;;;15.60;99.90;;;;;;5089991;28;20040;-63
2023/06/24 00:17:02;;;;;;;3.90;1.75;;;15.60;99.90;;;;;;5088735;28;20059;-63
2023/06/24 00:19:28;;;;;;;5.13;2.13;;;15.50;99.90;;;;;;5088126;28;20040;-63
2023/06/24 00:21:54;;;;;;;4.13;1.80;;;15.50;99.90;;;;;;5089673;28;20462;-63
2023/06/24 00:24:23;;;;;;;5.82;2.60;;;15.40;99.90;;;;;;5088802;28;20105;-63
2023/06/24 00:26:49;;;;;;;5.93;2.33;;;15.40;99.90;;;;;;5087744;28;20044;-63
2023/06/24 00:29:15;;;;;;;5.72;2.60;;;15.40;99.90;;;;;;5089688;28;20044;-63
2023/06/24 00:31:41;;;;;;;3.33;1.63;;;15.30;99.90;;;;;;5088320;28;20104;-63
2023/06/24 00:34:07;;;;;;;5.18;2.22;;;15.30;99.90;;;;;;5070774;28;20036;-63
2023/06/24 00:36:35;;;;;;;5.30;3.03;;;15.30;99.90;;;;;;5089461;28;20044;-63
2023/06/24 00:39:05;;;;;;;4.97;2.33;;;15.30;99.90;;;;;;5088502;28;20106;-63
2023/06/24 00:41:32;;;;;;;2.72;1.92;;;15.30;99.90;;;;;;5088900;28;20492;-63
2023/06/24 00:43:58;;;;;;;5.53;1.80;;;15.30;99.90;;;;;;5088465;28;20042;-63
2023/06/24 00:46:25;;;;;;;3.88;1.85;;;15.20;99.90;;;;;;5089172;28;20067;-63
2023/06/24 00:48:58;;;;;;;6.30;2.47;;;15.20;99.90;;;;;;5074785;28;20398;-63
2023/06/24 00:51:29;;;;;;;5.22;2.42;;;15.20;99.90;;;;;;5067750;28;20040;-63
2023/06/24 00:53:55;;;;;;;6.75;2.60;;;15.10;99.90;;;;;;5068552;28;20057;-63
2023/06/24 00:56:34;;;;;;;4.22;2.17;;;15.10;99.90;;;;;;5067787;28;20223;-63
2023/06/24 00:59:02;;;;;;;3.55;1.95;;;15.10;99.90;;;;;;5071934;28;20039;-63
2023/06/24 01:01:35;;;;;;;4.25;1.67;;;15.10;99.90;;;;;;5089931;28;20051;-63
2023/06/24 01:04:02;;;;;;;4.30;2.40;;;15.00;99.90;;;;;;5093554;28;20496;-63
2023/06/24 01:06:29;;;;;;;5.63;2.42;;;15.00;99.90;;;;;;5093565;28;20122;-63
2023/06/24 01:08:59;;;;;;;3.20;1.77;;;15.10;99.90;;;;;;5074643;28;20112;-63
2023/06/24 01:11:26;;;;;;;4.95;1.98;;;15.00;99.90;;;;;;5093501;28;20050;-63
2023/06/24 01:13:52;;;;;;;5.82;2.40;;;15.00;99.90;;;;;;5092269;28;20036;-63
2023/06/24 01:16:36;;;;;;;9.15;2.95;;;15.00;99.90;;;;;;5074470;28;20044;-63
2023/06/24 01:19:31;;;;;;;4.55;2.28;;;15.00;99.90;;;;;;5075174;28;20040;-63
2023/06/24 01:22:20;;;;;;;4.32;1.77;;;14.90;99.90;;;;;;5074396;28;20048;-63
2023/06/24 01:25:07;;;;;;;4.10;1.85;;;14.80;99.90;;;;;;5092171;28;20444;-63
2023/06/24 01:28:08;;;;;;;4.28;1.88;;;14.70;99.90;;;;;;5091732;28;20036;-63
2023/06/24 01:30:52;;;;;;;5.43;2.42;;;14.70;99.90;;;;;;5092347;28;20114;-63
2023/06/24 01:33:32;;;;;;;5.93;1.77;;;14.70;99.90;;;;;;5091987;28;20043;-63
2023/06/24 01:36:01;;;;;;;4.78;2.38;;;14.60;99.90;;;;;;5091343;28;20495;-64
2023/06/24 01:38:44;;;;;;;4.72;1.95;;;14.60;99.90;;;;;;5091642;28;20504;-64
2023/06/24 01:41:13;;;;;;;3.60;1.58;;;14.50;99.90;;;;;;5092866;28;20508;-64
2023/06/24 01:43:42;;;;;;;4.93;2.03;;;14.50;99.90;;;;;;5091362;28;20039;-63
2023/06/24 01:46:09;;;;;;;3.95;1.50;;;14.50;99.90;;;;;;5071229;28;20047;-63
2023/06/24 01:48:38;;;;;;;4.57;2.33;;;14.40;99.90;;;;;;5071042;28;20521;-63
2023/06/24 01:51:09;;;;;;;3.88;1.65;;;14.40;99.90;;;;;;5070666;28;20413;-63
2023/06/24 01:53:42;;;;;;;5.65;2.53;;;14.40;99.90;;;;;;5070715;28;20060;-62
2023/06/24 01:56:10;;;;;;;5.45;1.88;;;14.40;99.90;;;;;;5072358;28;20080;-63
2023/06/24 01:58:38;;;;;;;5.20;2.47;;;14.40;99.90;;;;;;5072256;28;20402;-63
2023/06/24 02:01:05;;;;;;;4.30;2.47;;;14.30;99.90;;;;;;5091203;28;20085;-63
2023/06/24 02:03:33;;;;;;;4.30;1.98;;;14.30;99.90;;;;;;5091886;28;20035;-63
2023/06/24 02:06:00;;;;;;;3.83;1.73;;;14.20;99.90;;;;;;5091198;28;20400;-63
2023/06/24 02:08:29;;;;;;;3.47;2.10;;;14.20;99.90;;;;;;5081033;28;20074;-63
2023/06/24 02:10:56;;;;;;;7.03;2.50;;;14.20;99.90;;;;;;5071545;28;20032;-63
2023/06/24 02:13:23;;;;;;;4.57;2.03;;;14.20;99.90;;;;;;5053104;28;20102;-63
2023/06/24 02:15:51;;;;;;;6.35;2.97;;;14.10;99.90;;;;;;5053948;28;20037;-63
2023/06/24 02:18:19;;;;;;;6.25;2.58;;;14.10;99.90;;;;;;5069909;28;20041;-63
2023/06/24 02:20:48;;;;;;;4.70;2.33;;;14.10;99.90;;;;;;5070839;28;20465;-63
2023/06/24 02:23:14;;;;;;;3.72;1.80;;;14.00;99.90;;;;;;5070768;28;20119;-63
2023/06/24 02:25:41;;;;;;;5.13;2.03;;;14.00;99.90;;;;;;5069737;28;20480;-63
2023/06/24 02:28:08;;;;;;;3.85;2.03;;;14.00;99.90;;;;;;5071595;28;20072;-63
2023/06/24 02:30:38;;;;;;;9.23;2.40;;;14.00;99.90;;;;;;5070346;28;20036;-63
2023/06/24 02:33:06;;;;;;;6.40;2.47;;;13.90;99.90;;;;;;5069688;28;20036;-63
2023/06/24 02:35:32;;;;;;;6.80;2.55;;;13.90;99.90;;;;;;5070318;28;20110;-63
2023/06/24 02:37:58;;;;;;;4.47;2.42;;;13.80;99.90;;;;;;5071747;28;20040;-63
2023/06/24 02:40:25;;;;;;;4.60;2.40;;;13.90;99.90;;;;;;5069362;28;20036;-63
2023/06/24 02:42:50;;;;;;;4.38;2.17;;;13.80;99.90;;;;;;5070240;28;20101;-63
2023/06/24 02:45:17;;;;;;;6.72;2.60;;;13.80;99.90;;;;;;5070235;28;20123;-63
2023/06/24 02:47:46;;;;;;;4.53;2.08;;;13.90;99.90;;;;;;5052676;28;20101;-63
2023/06/24 02:50:12;;;;;;;6.22;2.78;;;13.80;99.90;;;;;;5069961;28;20040;-63
2023/06/24 02:52:38;;;;;;;7.05;2.42;;;13.90;99.90;;;;;;5069005;28;20053;-63
2023/06/24 02:55:05;;;;;;;4.07;2.20;;;13.90;99.90;;;;;;5069899;28;20036;-63
2023/06/24 02:57:32;;;;;;;9.82;2.38;;;13.90;99.90;;;;;;5053531;28;20049;-63
2023/06/24 02:59:58;;;;;;;6.10;2.65;;;13.90;99.90;;;;;;5064451;28;20133;-63
2023/06/24 03:02:25;;;;;;;3.97;2.03;;;13.90;99.90;;;;;;5091659;28;20174;-63
2023/06/24 03:04:51;;;;;;;5.05;2.88;;;13.90;99.90;;;;;;5073354;28;20424;-62
2023/06/24 03:07:21;;;;;;;4.07;2.08;;;13.90;99.90;;;;;;5072358;28;20044;-62
2023/06/24 03:09:48;;;;;;;6.13;2.53;;;13.90;99.90;;;;;;5091188;28;20055;-62
2023/06/24 03:12:13;;;;;;;5.53;2.53;;;13.90;99.90;;;;;;5089748;28;20032;-62
2023/06/24 03:14:39;;;;;;;7.05;2.90;;;13.80;99.90;;;;;;5072448;28;20036;-62
2023/06/24 03:17:05;;;;;;;3.50;2.30;;;13.90;99.90;;;;;;5090950;28;20577;-63
2023/06/24 03:19:31;;;;;;;6.22;2.45;;;13.90;99.90;;;;;;5089926;28;20177;-63
2023/06/24 03:21:57;;;;;;;3.63;2.38;;;13.80;99.90;;;;;;5088964;28;20043;-63
2023/06/24 03:24:23;;;;;;;6.00;2.50;;;13.80;99.90;;;;;;5090736;28;20052;-62
2023/06/24 03:26:55;;;;;;;7.10;2.80;;;13.80;99.90;;;;;;5090729;28;20048;-63
2023/06/24 03:29:21;;;;;;;6.07;2.70;;;13.80;99.90;;;;;;5090103;28;20040;-63
2023/06/24 03:31:48;;;;;;;6.72;2.88;;;13.80;99.90;;;;;;5090914;28;20043;-62
2023/06/24 03:34:14;;;;;;;6.53;2.58;;;13.80;99.90;;;;;;5089298;28;20488;-62
2023/06/24 03:36:39;;;;;;;9.13;2.55;;;13.90;99.90;;;;;;5083821;28;20036;-62
2023/06/24 03:39:06;;;;;;;6.38;3.20;;;13.90;99.90;;;;;;5069018;28;20412;-62
2023/06/24 03:41:32;;;;;;;5.22;2.38;;;13.90;99.90;;;;;;5068581;28;20041;-63
2023/06/24 03:43:58;;;;;;;7.47;2.83;;;13.90;99.90;;;;;;5068821;28;20481;-63
2023/06/24 03:46:24;;;;;;;5.13;2.45;;;13.90;99.90;;;;;;5070115;28;20098;-63
2023/06/24 03:48:50;;;;;;;5.05;2.97;;;14.00;99.90;;;;;;5069667;28;20097;-63
2023/06/24 03:51:16;;;;;;;5.75;2.85;;;14.00;99.90;;;;;;5068975;28;20076;-63
2023/06/24 03:53:42;;;;;;;7.53;3.10;;;14.00;99.90;;;;;;5068538;28;20496;-63
2023/06/24 03:56:08;;;;;;;6.10;2.55;;;14.00;99.90;;;;;;5068094;28;20084;-63
2023/06/24 03:58:34;;;;;;;8.70;2.95;;;14.00;99.90;;;;;;5070039;28;20044;-63
2023/06/24 04:01:02;;;;;;;6.35;2.45;;;14.10;99.90;;;;;;5090293;28;20051;-63
2023/06/24 04:03:28;;;;;;;7.13;2.85;;;14.10;99.90;;;;;;5088434;28;20040;-63
2023/06/24 04:05:55;;;;;;;6.63;2.88;;;14.20;99.90;;;;;;5088976;28;20564;-63
2023/06/24 04:08:22;;;;;;;6.45;3.47;;;14.20;99.90;;;;;;5089919;28;20040;-63
2023/06/24 04:10:47;;;;;;;5.20;3.30;;;14.30;99.90;;;;;;5088082;28;20048;-63
2023/06/24 04:13:13;;;;;;;6.93;3.13;;;14.30;99.90;;;;;;5088850;28;20050;-62
2023/06/24 04:15:39;;;;;;;6.13;2.88;;;14.40;99.90;;;;;;5089749;28;20040;-63
2023/06/24 04:18:05;;;;;;;12.15;4.97;;;14.50;99.90;;;;;;5088011;28;20055;-63
2023/06/24 04:20:31;;;;;;;6.63;3.30;;;14.60;99.90;;;;;;5088681;28;20043;-63
2023/06/24 04:22:59;;;;;;;6.55;3.08;;;14.60;99.90;;;;;;5088519;28;20503;-63
2023/06/24 04:25:25;;;;;;;6.45;3.22;;;14.70;99.90;;;;;;5087769;28;20043;-63
2023/06/24 04:27:51;;;;;;;10.10;3.65;;;14.80;99.90;;;;;;5089757;28;20043;-62
2023/06/24 04:30:17;;;;;;;7.95;3.63;;;14.90;99.90;;;;;;5071584;28;20072;-63
2023/06/24 04:32:43;;;;;;;8.82;3.60;;;15.00;99.90;;;;;;5084446;28;20064;-63
2023/06/24 04:35:09;;;;;;;6.82;3.45;;;15.00;99.90;;;;;;5067780;28;20044;-62
2023/06/24 04:37:35;;;;;;;7.50;3.67;;;15.10;99.90;;;;;;5067445;28;20097;-63
2023/06/24 04:40:01;;;;;;;6.53;3.50;;;15.20;99.90;;;;;;5068017;28;20040;-63
2023/06/24 04:42:27;;;;;;;7.45;3.40;;;15.20;99.90;;;;;;5069217;28;20053;-62
2023/06/24 04:44:52;;;;;;;8.98;3.92;;;15.30;99.90;;;;;;5051001;28;20048;-63
2023/06/24 04:47:18;;;;;;;6.45;3.15;;;15.30;99.90;;;;;;5068114;28;20473;-63
2023/06/24 04:49:44;;;;;;;7.20;3.30;;;15.40;99.90;;;;;;5068730;28;20703;-63
2023/06/24 04:52:14;;;;;;;6.80;3.88;;;15.50;99.90;;;;;;5051208;28;21429;-63
2023/06/24 04:54:40;;;;;;;10.90;4.13;;;15.60;99.90;;;;;;5069154;28;20044;-63
2023/06/24 04:57:09;;;;;;;8.23;3.55;;;15.70;99.90;;;;;;5068469;28;20500;-63
2023/06/24 04:59:36;;;;;;;8.23;3.88;;;15.80;99.90;;;;;;5077228;28;20067;-63
2023/06/24 05:02:02;;;;;;;7.10;3.55;;;15.90;99.90;;;;;;5090305;28;20472;-63
2023/06/24 05:04:28;;;;;;;7.90;3.47;;;16.00;99.90;;;;;;5072292;28;20039;-63
2023/06/24 05:06:54;;;;;;;7.38;3.40;;;16.10;99.90;;;;;;5078482;28;20378;-63
2023/06/24 05:09:20;;;;;;;6.45;3.20;;;16.20;99.90;;;;;;5050096;28;20044;-63
2023/06/24 05:11:46;;;;;;;6.47;3.03;;;16.30;99.90;;;;;;5049011;28;20048;-62
2023/06/24 05:14:11;;;;;;;7.78;3.55;;;16.40;99.90;;;;;;5048282;28;20123;-63
2023/06/24 05:16:37;;;;;;;8.88;3.45;;;16.60;99.90;;;;;;5049908;28;20037;-64
2023/06/24 05:19:04;;;;;;;9.25;4.13;;;16.70;99.90;;;;;;5048454;28;20048;-64
2023/06/24 05:21:30;;;;;;;10.05;4.25;;;16.90;99.90;;;;;;5048259;28;20040;-63
2023/06/24 05:23:56;;;;;;;7.18;3.10;;;17.00;99.90;;;;;;5048766;28;20040;-64
2023/06/24 05:26:22;;;;;;;9.88;3.50;;;17.10;99.90;;;;;;5048686;28;20149;-64
2023/06/24 05:28:48;;;;;;;9.45;3.92;;;17.20;99.90;;;;;;5048288;28;20127;-64
2023/06/24 05:31:14;;;;;;;8.75;3.83;;;17.30;99.90;;;;;;5070034;28;20810;-63
2023/06/24 05:33:40;;;;;;;9.45;4.57;;;17.40;99.90;;;;;;5068436;28;20048;-64
2023/06/24 05:36:05;;;;;;;8.02;3.30;;;17.50;99.90;;;;;;5069536;28;20094;-63
2023/06/24 05:38:31;;;;;;;6.90;3.15;;;17.70;99.90;;;;;;5069418;28;20565;-64
2023/06/24 05:40:57;;;;;;;6.28;3.08;;;17.90;99.90;;;;;;5069302;28;20037;-64
2023/06/24 05:43:23;;;;;;;8.48;4.20;;;18.00;99.90;;;;;;5068390;28;20374;-63
2023/06/24 05:45:48;;;;;;;8.52;4.00;;;18.20;99.90;;;;;;5067847;28;20040;-64
2023/06/24 05:48:14;;;;;;;7.05;3.88;;;18.40;99.90;;;;;;5069919;28;20037;-64
2023/06/24 05:50:40;;;;;;;7.85;3.88;;;18.50;99.90;;;;;;5071416;28;20032;-64
2023/06/24 05:53:06;;;;;;;8.50;3.60;;;18.70;99.90;;;;;;5070876;28;20512;-64
2023/06/24 05:55:32;;;;;;;5.30;2.92;;;18.80;99.90;;;;;;5071605;28;20504;-63
2023/06/24 05:57:57;;;;;;;6.68;3.92;;;18.90;99.90;;;;;;5054155;28;20045;-64
2023/06/24 06:00:23;;;;;;;7.28;3.63;;;19.00;99.90;;;;;;5069588;28;20050;-64
2023/06/24 06:02:49;;;;;;;8.50;3.78;;;19.20;99.90;;;;;;5090538;28;20040;-63
2023/06/24 06:05:15;;;;;;;6.20;3.22;;;19.30;99.90;;;;;;5092305;28;20078;-63
2023/06/24 06:07:41;;;;;;;7.63;3.83;;;19.50;99.90;;;;;;5092169;28;20040;-63
2023/06/24 06:10:07;;;;;;;7.00;3.40;;;19.70;99.90;;;;;;5090358;28;20040;-64
2023/06/24 06:12:33;;;;;;;9.88;3.90;;;19.90;99.90;;;;;;5092254;28;20043;-64
2023/06/24 06:14:59;;;;;;;7.32;3.30;;;20.10;99.90;;;;;;5092268;28;20423;-64
2023/06/24 06:17:25;;;;;;;5.00;2.92;;;20.30;99.90;;;;;;5091475;28;20048;-64
2023/06/24 06:19:50;;;;;;;5.70;2.40;;;20.50;99.90;;;;;;5074272;28;20044;-63
2023/06/24 06:22:17;;;;;;;6.03;2.70;;;20.60;99.90;;;;;;5092037;28;20396;-64
2023/06/24 06:24:43;;;;;;;6.85;2.35;;;20.70;99.90;;;;;;5091429;28;20109;-63
2023/06/24 06:27:11;;;;;;;4.70;2.45;;;20.70;99.90;;;;;;5072111;28;20045;-63
2023/06/24 06:29:37;;;;;;;4.03;1.90;;;20.80;99.90;;;;;;5069144;28;20072;-63
2023/06/24 06:32:03;;;;;;;5.97;2.45;;;20.80;99.90;;;;;;5071660;28;20469;-63
2023/06/24 06:34:29;;;;;;;5.43;2.70;;;20.80;99.90;;;;;;5070271;28;20124;-64
2023/06/24 06:36:54;;;;;;;4.65;2.55;;;20.90;99.90;;;;;;5070758;28;20127;-64
2023/06/24 06:39:20;;;;;;;5.22;2.78;;;20.90;99.90;;;;;;5071440;28;20120;-64
2023/06/24 06:41:46;;;;;;;4.95;2.72;;;21.00;99.90;;;;;;5071582;28;20465;-63
2023/06/24 06:44:12;;;;;;;4.55;2.50;;;21.10;99.90;;;;;;5053182;28;20051;-64
2023/06/24 06:46:38;;;;;;;5.18;2.33;;;21.30;99.90;;;;;;5071514;28;20040;-64
2023/06/24 06:49:04;;;;;;;5.93;2.75;;;21.40;99.90;;;;;;5071191;28;20101;-64
2023/06/24 06:51:30;;;;;;;4.13;2.22;;;21.50;99.90;;;;;;5069303;28;20036;-63
2023/06/24 06:53:56;;;;;;;3.00;1.50;;;21.70;99.90;;;;;;5069682;28;20051;-63
2023/06/24 06:56:25;;;;;;;4.32;1.80;;;21.80;99.90;;;;;;5053321;28;20047;-64
2023/06/24 06:58:54;;;;;;;3.35;1.50;;;21.90;99.90;;;;;;5071459;28;20492;-63
2023/06/24 07:01:20;;;;;;;6.22;1.77;;;22.00;99.90;;;;;;5090058;28;20079;-63
2023/06/24 07:03:46;;;;;;;3.47;1.58;;;22.10;99.90;;;;;;5090126;28;20090;-64
2023/06/24 07:06:12;;;;;;;2.13;1.23;;;22.10;99.90;;;;;;5090654;28;20044;-63
2023/06/24 07:08:37;;;;;;;3.25;1.40;;;22.20;99.90;;;;;;5090091;28;20040;-63
2023/06/24 07:11:03;;;;;;;3.05;1.48;;;22.20;99.90;;;;;;5090774;28;20063;-63
2023/06/24 07:13:29;;;;;;;3.22;1.27;;;22.40;99.90;;;;;;5089342;28;20480;-63
2023/06/24 07:15:55;;;;;;;3.20;1.25;;;22.50;99.90;;;;;;5088706;28;20559;-64
2023/06/24 07:18:21;;;;;;;2.58;1.73;;;22.70;99.90;;;;;;5089537;28;20036;-64
2023/06/24 07:20:47;;;;;;;4.30;1.13;;;22.70;99.90;;;;;;5089347;28;20118;-64
2023/06/24 07:23:12;;;;;;;2.55;1.20;;;22.70;99.90;;;;;;5072691;28;20084;-63
2023/06/24 07:25:38;;;;;;;3.60;1.40;;;22.80;99.90;;;;;;5068640;28;20045;-65
2023/06/24 07:28:04;;;;;;;4.40;1.70;;;22.80;99.90;;;;;;5069160;28;20052;-63
2023/06/24 07:30:30;;;;;;;4.32;1.65;;;22.90;99.90;;;;;;5069246;28;20063;-63
2023/06/24 07:32:56;;;;;;;5.15;1.58;;;23.10;99.90;;;;;;5069692;28;20040;-63
2023/06/24 07:35:22;;;;;;;3.70;1.33;;;23.20;99.90;;;;;;5069074;28;20040;-63
2023/06/24 07:37:48;;;;;;;3.25;1.48;;;23.30;99.90;;;;;;5068008;28;20048;-64
2023/06/24 07:40:14;;;;;;;4.63;1.90;;;23.30;99.90;;;;;;5067991;28;20044;-64
2023/06/24 07:42:41;;;;;;;1.95;1.20;;;23.40;99.90;;;;;;5069279;28;20036;-63
2023/06/24 07:45:07;;;;;;;5.13;1.65;;;23.40;99.90;;;;;;5069045;28;20040;-64
2023/06/24 07:47:33;;;;;;;3.30;1.30;;;23.50;99.90;;;;;;5068189;28;20079;-64
2023/06/24 07:49:59;;;;;;;2.70;1.35;;;23.50;99.90;;;;;;5069121;28;20125;-63
2023/06/24 07:52:25;;;;;;;2.47;1.60;;;23.60;99.90;;;;;;5068413;28;20043;-63
2023/06/24 07:54:50;;;;;;;5.60;1.45;;;23.70;99.90;;;;;;5068303;28;20040;-63
2023/06/24 07:57:16;;;;;;;4.13;1.45;;;23.80;99.90;;;;;;5070275;28;20072;-64
2023/06/24 07:59:43;;;;;;;3.38;1.27;;;23.80;99.90;;;;;;5078648;28;20093;-64
2023/06/24 08:02:09;;;;;;;3.10;1.20;;;23.90;99.90;;;;;;5089442;28;20039;-64
2023/06/24 08:04:34;;;;;;;2.85;1.33;;;23.80;99.90;;;;;;5088788;28;20044;-63
2023/06/24 08:07:00;;;;;;;4.18;2.00;;;23.80;99.90;;;;;;5090236;28;20123;-64
2023/06/24 08:09:26;;;;;;;5.45;2.50;;;23.80;99.90;;;;;;5071373;28;20150;-64
2023/06/24 08:11:52;;;;;;;5.03;1.92;;;24.00;99.90;;;;;;5088084;28;20495;-64
2023/06/24 08:14:18;;;;;;;2.65;1.30;;;24.20;99.90;;;;;;5089461;28;20040;-65
2023/06/24 08:16:44;;;;;;;3.53;1.80;;;24.70;99.90;;;;;;5088546;28;20073;-64
2023/06/24 08:19:10;;;;;;;5.07;2.17;;;24.90;99.90;;;;;;5055747;28;20045;-64
2023/06/24 08:21:37;;;;;;;4.28;2.05;;;25.00;99.90;;;;;;5067617;28;20054;-65
2023/06/24 08:24:04;;;;;;;4.05;1.95;;;25.20;99.90;;;;;;5068823;28;20040;-64
2023/06/24 08:26:30;;;;;;;2.50;1.42;;;25.30;99.90;;;;;;5068195;28;20037;-64
2023/06/24 08:28:58;;;;;;;3.67;1.38;;;25.50;99.90;;;;;;5068883;28;20040;-64
2023/06/24 08:31:24;;;;;;;3.20;1.30;;;25.60;99.90;;;;;;5068398;28;20040;-64
2023/06/24 08:33:54;;;;;;;3.63;1.77;;;25.90;99.90;;;;;;5069334;28;20388;-65
2023/06/24 08:36:23;;;;;;;4.75;1.83;;;26.20;99.90;;;;;;5068890;28;20054;-64
2023/06/24 08:38:49;;;;;;;;;;;26.30;99.90;;;;;;5068690;28;20049;-64
2023/06/24 08:41:15;;;;;;;3.47;1.65;;;26.60;96.60;;;;;;5069265;28;19927;-65
2023/06/24 08:43:42;;;;;;;3.03;1.38;;;26.80;99.90;;;;;;5067435;28;20131;-65
2023/06/24 08:46:08;;;;;;;3.30;1.55;;;27.00;99.90;;;;;;5069093;28;20098;-65
2023/06/24 08:48:40;;;;;;;2.58;1.20;;;27.10;98.90;;;;;;5069441;28;20428;-65
2023/06/24 08:51:08;;;;;;;3.60;1.90;;;27.20;99.00;;;;;;5067307;28;20048;-65
2023/06/24 08:53:35;;;;;;;3.47;1.40;;;27.40;96.20;;;;;;5069155;28;20447;-65
2023/06/24 08:56:01;;;;;;;3.40;1.35;;;27.50;96.60;;;;;;5068166;28;20037;-65
2023/06/24 08:58:28;;;;;;;4.10;1.58;;;27.70;97.10;;;;;;5067325;28;20447;-64
2023/06/24 09:00:54;;;;;;;2.80;1.35;;;27.90;96.70;;;;;;5087452;28;20050;-65
2023/06/24 09:03:21;;;;;;;2.65;1.15;;;28.10;96.40;;;;;;5067578;28;20052;-65
2023/06/24 09:05:48;;;;;;;4.90;1.60;;;28.20;95.10;;;;;;5068300;28;20074;-66
2023/06/24 09:08:15;;;;;;;3.92;1.35;;;28.10;94.90;;;;;;5068495;28;20133;-65
2023/06/24 09:10:42;;;;;;;3.88;1.48;;;28.00;94.30;;;;;;5067069;28;20049;-64
2023/06/24 09:13:08;;;;;;;3.40;1.48;;;27.80;93.80;;;;;;5067875;28;20040;-65
2023/06/24 09:15:38;;;;;;;2.13;1.25;;;27.90;94.20;;;;;;5067310;28;20120;-65
2023/06/24 09:18:05;;;;;;;4.78;1.70;;;28.10;93.90;;;;;;5066755;28;20038;-66
2023/06/24 09:20:32;;;;;;;2.85;1.13;;;28.30;94.20;;;;;;5068898;28;20086;-64
2023/06/24 09:22:59;;;;;;;3.30;1.48;;;28.50;93.80;;;;;;5070878;28;20044;-65
2023/06/24 09:25:26;;;;;;;5.10;1.98;;;28.60;93.70;;;;;;5071738;28;20036;-64
2023/06/24 09:27:52;;;;;;;4.53;1.60;;;28.50;93.50;;;;;;5072645;28;20044;-64
2023/06/24 09:30:22;;;;;;;3.90;1.80;;;28.50;93.50;;;;;;5071534;28;20032;-64
2023/06/24 09:32:50;;;;;;;2.20;1.08;;;28.50;93.40;;;;;;5060104;28;20045;-64
2023/06/24 09:35:24;;;;;;;2.05;0.95;;;28.70;93.70;;;;;;5051324;28;20072;-64
2023/06/24 09:37:54;;;;;;;3.03;1.40;;;29.00;93.00;;;;;;5052526;28;20481;-64
2023/06/24 09:40:21;;;;;;;3.45;1.42;;;29.20;92.70;;;;;;5050664;28;20081;-64
2023/06/24 09:42:53;;;;;;;4.63;1.73;;;29.40;93.00;;;;;;5051420;28;20041;-65
2023/06/24 09:45:29;;;;;;;3.00;1.42;;;29.70;91.80;;;;;;5034813;28;20055;-65
2023/06/24 09:47:56;;;;;;;3.03;1.42;;;29.60;90.50;;;;;;5034377;28;20557;-64
2023/06/24 09:50:22;;;;;;;2.42;1.35;;;29.50;91.30;;;;;;5069028;28;20040;-65
2023/06/24 09:52:52;;;;;;;2.95;1.38;;;29.40;91.60;;;;;;5070388;28;20055;-65
2023/06/24 09:55:18;;;;;;;2.10;1.10;;;29.60;91.60;;;;;;5056984;28;20036;-65
2023/06/24 09:57:52;;;;;;;2.80;1.30;;;29.70;91.30;;;;;;5063592;28;20032;-64
2023/06/24 10:00:21;;;;;;;2.95;1.27;;;29.90;91.40;;;;;;5064019;28;20092;-65
2023/06/24 10:02:48;;;;;;;3.55;1.52;;;30.00;90.80;;;;;;5051764;28;20052;-64
2023/06/24 10:05:14;;;;;;;3.08;1.35;;;30.20;91.00;;;;;;5034441;28;20127;-64
2023/06/24 10:07:41;;;;;;;3.45;1.48;;;30.30;90.50;;;;;;5050052;28;20489;-64
2023/06/24 10:10:09;;;;;;;2.03;1.33;;;30.50;90.00;;;;;;5055827;28;20052;-65
2023/06/24 10:12:35;;;;;;;3.30;1.38;;;30.50;90.20;;;;;;5071870;28;20036;-64
2023/06/24 10:15:02;;;;;;;2.08;1.05;;;30.70;90.00;;;;;;5072263;28;20467;-64
2023/06/24 10:17:27;;;;;;;3.42;1.67;;;30.80;89.20;;;;;;5072272;28;20044;-64
2023/06/24 10:19:56;;;;;;;3.25;1.35;;;30.80;87.90;;;;;;5070183;28;20037;-64
2023/06/24 10:22:24;;;;;;;2.55;1.08;;;30.80;87.10;;;;;;5053166;28;20044;-64
2023/06/24 10:24:52;;;;;;;2.53;1.55;;;30.80;87.20;;;;;;5070389;28;20565;-65
2023/06/24 10:27:23;;;;;;;3.60;1.77;;;30.90;86.90;;;;;;5070402;28;20124;-65
2023/06/24 10:29:56;;;;;;;2.67;1.30;;;30.90;85.00;;;;;;5069884;28;20037;-64
2023/06/24 10:32:23;;;;;;;1.85;0.95;;;31.00;85.60;;;;;;5070044;28;20033;-64
2023/06/24 10:34:56;;;;;;;3.17;1.10;;;31.20;85.80;;;;;;5052197;28;20086;-64
2023/06/24 10:37:24;;;;;;;2.80;1.17;;;30.90;83.80;;;;;;5070191;28;20514;-64
2023/06/24 10:39:58;;;;;;;3.08;1.05;;;30.50;83.20;;;;;;5070114;28;20052;-64
2023/06/24 10:42:37;;;;;;;2.15;1.00;;;30.50;83.50;;;;;;5069800;28;20113;-65
2023/06/24 10:45:17;;;;;;;2.50;1.15;;;30.60;82.80;;;;;;5070314;28;20110;-64
2023/06/24 10:47:48;;;;;;;2.28;1.08;;;30.60;81.50;;;;;;5069967;28;20044;-64
2023/06/24 10:50:19;;;;;;;3.67;1.20;;;30.60;81.70;;;;;;5070591;28;20071;-64
2023/06/24 10:52:50;;;;;;;2.92;1.38;;;30.60;81.60;;;;;;5070084;28;20052;-64
2023/06/24 10:55:19;;;;;;;3.35;1.35;;;30.70;81.00;;;;;;5070960;28;20043;-65
2023/06/24 10:57:45;;;;;;;2.45;1.25;;;30.80;81.20;;;;;;5068993;28;20044;-65
2023/06/24 11:00:13;;;;;;;2.08;1.02;;;30.90;81.00;;;;;;5084356;28;20518;-65
2023/06/24 11:02:39;;;;;;;1.90;0.85;;;31.00;81.20;;;;;;5091450;28;20517;-64
2023/06/24 11:05:05;;;;;;;3.42;1.42;;;31.00;80.30;;;;;;5090861;28;20052;-64
2023/06/24 11:07:34;;;;;;;2.47;1.38;;;31.00;80.60;;;;;;5079667;28;20115;-65
2023/06/24 11:10:05;;;;;;;1.55;1.08;;;30.90;77.70;;;;;;5069072;28;20097;-65
2023/06/24 11:12:36;;;;;;;2.03;0.75;;;30.70;77.30;;;;;;5069515;28;20493;-64
2023/06/24 11:15:07;;;;;;;2.92;1.40;;;30.70;76.20;;;;;;5069526;28;20079;-63
2023/06/24 11:17:34;;;;;;;2.75;1.00;;;30.70;77.60;;;;;;5070258;28;20272;-64
2023/06/24 11:20:01;;;;;;;3.17;1.23;;;31.00;77.90;;;;;;5070574;28;20033;-64
2023/06/24 11:22:27;;;;;;;4.47;1.27;;;31.20;77.00;;;;;;5070587;28;20488;-64
2023/06/24 11:24:54;;;;;;;4.03;1.20;;;31.20;76.20;;;;;;5069009;28;20090;-64
2023/06/24 11:27:27;;;;;;;1.63;0.80;;;31.20;75.40;;;;;;5052311;28;20037;-64
2023/06/24 11:29:54;;;;;;;3.30;1.45;;;31.20;75.20;;;;;;5070471;28;20447;-64
2023/06/24 11:32:21;;;;;;;1.55;0.93;;;31.20;75.40;;;;;;5068496;28;20048;-64
2023/06/24 11:34:48;;;;;;;2.95;1.00;;;31.10;75.40;;;;;;5070642;28;20040;-64
2023/06/24 11:37:15;;;;;;;2.55;0.88;;;31.10;75.80;;;;;;5049537;28;20049;-64
2023/06/24 11:39:41;;;;;;;2.63;0.90;;;31.00;75.10;;;;;;5049627;28;20123;-64
2023/06/24 11:42:08;;;;;;;1.83;0.95;;;31.00;75.40;;;;;;5049332;28;20139;-64
2023/06/24 11:44:35;;;;;;;3.38;1.25;;;31.00;74.50;;;;;;5048158;28;20052;-64
2023/06/24 11:47:08;;;;;;;4.65;1.02;;;31.00;75.00;;;;;;5031831;28;20049;-65
2023/06/24 11:49:55;;;;;;;2.22;0.80;;;31.00;74.50;;;;;;5049205;28;20037;-64
2023/06/24 11:52:45;;;;;;;1.77;0.95;;;31.00;75.40;;;;;;5048154;28;20040;-64
2023/06/24 11:55:23;;;;;;;2.53;1.20;;;31.10;74.30;;;;;;5049751;28;20099;-64
2023/06/24 11:58:01;;;;;;;1.73;0.80;;;31.00;73.70;;;;;;5061489;28;20131;-64
2023/06/24 12:00:46;;;;;;;1.98;1.17;;;30.90;74.30;;;;;;5084269;28;20480;-65
2023/06/24 12:03:12;;;;;;;2.85;1.23;;;30.90;73.10;;;;;;5082623;28;20404;-65
2023/06/24 12:05:40;;;;;;;1.85;0.90;;;31.00;73.30;;;;;;5051599;28;20106;-65
2023/06/24 12:08:08;;;;;;;2.90;1.17;;;30.80;72.80;;;;;;5067569;28;20044;-64
2023/06/24 12:10:35;;;;;;;1.63;0.90;;;30.80;72.80;;;;;;5048738;28;20090;-64
2023/06/24 12:13:02;;;;;;;2.28;1.17;;;30.70;72.70;;;;;;5031961;28;20041;-64
2023/06/24 12:15:28;;;;;;;2.67;1.25;;;30.70;72.70;;;;;;5063907;28;20041;-65
2023/06/24 12:17:55;;;;;;;2.05;0.77;;;30.70;72.30;;;;;;5048727;28;20041;-64
2023/06/24 12:20:21;;;;;;;1.48;0.80;;;30.80;71.80;;;;;;5047943;28;20045;-64
2023/06/24 12:22:48;;;;;;;3.33;1.33;;;30.70;71.70;;;;;;5031303;28;20045;-65
2023/06/24 12:25:14;;;;;;;1.88;0.90;;;30.80;71.80;;;;;;5048593;28;20840;-64
2023/06/24 12:27:42;;;;;;;2.75;1.15;;;30.70;72.00;;;;;;5048823;28;20094;-64
2023/06/24 12:30:09;;;;;;;3.67;1.23;;;30.60;71.00;;;;;;5048155;28;20505;-64
2023/06/24 12:32:35;;;;;;;2.08;0.90;;;30.50;71.90;;;;;;5048417;28;20053;-64
2023/06/24 12:35:03;;;;;;;3.17;1.02;;;30.50;71.70;;;;;;5047779;28;20124;-64
2023/06/24 12:37:31;;;;;;;2.47;1.17;;;30.30;71.60;;;;;;5048377;28;20055;-64
2023/06/24 12:39:57;;;;;;;;;;;30.20;72.30;;;;;;5048509;28;20128;-64
2023/06/24 12:42:23;;;;;;;2.13;1.13;;;30.20;73.40;;;;;;5064379;28;20023;-64
2023/06/24 12:44:49;;;;;;;3.53;1.38;;;30.20;72.40;;;;;;5047967;28;20416;-65
2023/06/24 12:47:15;;;;;;;2.00;1.00;;;30.20;71.90;;;;;;5049092;28;20052;-64
2023/06/24 12:49:40;;;;;;;3.08;1.55;;;30.20;71.40;;;;;;5063936;28;20037;-64
2023/06/24 12:52:06;;;;;;;3.35;1.35;;;30.20;71.00;;;;;;5048956;28;20048;-65